sensor_id;sensor_type;location;lat;lon;timestamp;P1;durP1;ratioP1;P2;durP2;ratioP2
10122;SDS011;5101;49.038;8.710;2023-03-01T00:02:18;11.17;;;9.30;;
10122;SDS011;5101;49.038;8.710;2023-03-01T00:04:44;11.93;;;9.37;;
10122;SDS011;5101;49.038;8.710;2023-03-01T00:07:10;14.73;;;9.90;;
10122;SDS011;5101;49.038;8.710;2023-03-01T00:09:36;13.17;;;10.23;;
10122;SDS011;5101;49.038;8.710;2023-03-01T00:12:02;10.97;;;9.27;;
10122;SDS011;5101;49.038;8.710;2023-03-01T00:14:27;13.23;;;9.53;;
10122;SDS011;5101;49.038;8.710;2023-03-01T00:16:53;11.70;;;9.17;;
10122;SDS011;5101;49.038;8.710;2023-03-01T00:19:19;12.87;;;9.63;;
10122;SDS011;5101;49.038;8.710;2023-03-01T00:21:46;14.63;;;9.70;;
10122;SDS011;5101;49.038;8.710;2023-03-01T00:24:12;12.10;;;9.00;;
10122;SDS011;5101;49.038;8.710;2023-03-01T00:26:38;12.47;;;9.60;;
10122;SDS011;5101;49.038;8.710;2023-03-01T00:29:03;11.20;;;8.57;;
10122;SDS011;5101;49.038;8.710;2023-03-01T00:31:30;15.03;;;9.27;;
10122;SDS011;5101;49.038;8.710;2023-03-01T00:33:58;11.57;;;8.80;;
10122;SDS011;5101;49.038;8.710;2023-03-01T00:36:26;12.33;;;8.77;;
10122;SDS011;5101;49.038;8.710;2023-03-01T00:38:53;15.00;;;9.33;;
10122;SDS011;5101;49.038;8.710;2023-03-01T00:41:19;12.93;;;9.20;;
10122;SDS011;5101;49.038;8.710;2023-03-01T00:43:45;10.90;;;8.67;;
10122;SDS011;5101;49.038;8.710;2023-03-01T00:46:15;11.83;;;9.17;;
10122;SDS011;5101;49.038;8.710;2023-03-01T00:48:42;11.87;;;9.37;;
10122;SDS011;5101;49.038;8.710;2023-03-01T00:53:36;12.40;;;9.13;;
10122;SDS011;5101;49.038;8.710;2023-03-01T00:56:03;12.53;;;9.10;;
10122;SDS011;5101;49.038;8.710;2023-03-01T00:58:29;13.33;;;9.10;;
10122;SDS011;5101;49.038;8.710;2023-03-01T01:00:55;13.03;;;8.97;;
10122;SDS011;5101;49.038;8.710;2023-03-01T01:03:20;12.40;;;9.20;;
10122;SDS011;5101;49.038;8.710;2023-03-01T01:05:46;10.87;;;8.43;;
10122;SDS011;5101;49.038;8.710;2023-03-01T01:08:11;13.27;;;9.20;;
10122;SDS011;5101;49.038;8.710;2023-03-01T01:10:37;13.43;;;8.83;;
10122;SDS011;5101;49.038;8.710;2023-03-01T01:13:02;12.00;;;8.90;;
10122;SDS011;5101;49.038;8.710;2023-03-01T01:15:29;13.73;;;9.43;;
10122;SDS011;5101;49.038;8.710;2023-03-01T01:17:57;14.43;;;9.97;;
10122;SDS011;5101;49.038;8.710;2023-03-01T01:20:23;12.57;;;9.37;;
10122;SDS011;5101;49.038;8.710;2023-03-01T01:22:48;13.23;;;9.17;;
10122;SDS011;5101;49.038;8.710;2023-03-01T01:25:14;12.10;;;9.00;;
10122;SDS011;5101;49.038;8.710;2023-03-01T01:27:39;14.03;;;9.43;;
10122;SDS011;5101;49.038;8.710;2023-03-01T01:30:05;15.47;;;10.20;;
10122;SDS011;5101;49.038;8.710;2023-03-01T01:32:31;12.20;;;9.60;;
10122;SDS011;5101;49.038;8.710;2023-03-01T01:34:56;12.17;;;9.23;;
10122;SDS011;5101;49.038;8.710;2023-03-01T01:37:22;11.37;;;9.33;;
10122;SDS011;5101;49.038;8.710;2023-03-01T01:39:47;14.83;;;9.53;;
10122;SDS011;5101;49.038;8.710;2023-03-01T01:42:17;14.20;;;9.37;;
10122;SDS011;5101;49.038;8.710;2023-03-01T01:44:45;14.23;;;10.20;;
10122;SDS011;5101;49.038;8.710;2023-03-01T01:47:18;13.07;;;9.37;;
10122;SDS011;5101;49.038;8.710;2023-03-01T01:49:51;13.27;;;9.50;;
10122;SDS011;5101;49.038;8.710;2023-03-01T01:52:22;16.50;;;10.03;;
10122;SDS011;5101;49.038;8.710;2023-03-01T01:54:59;13.70;;;10.27;;
10122;SDS011;5101;49.038;8.710;2023-03-01T01:57:34;12.60;;;9.43;;
10122;SDS011;5101;49.038;8.710;2023-03-01T02:00:03;14.37;;;10.60;;
10122;SDS011;5101;49.038;8.710;2023-03-01T02:02:32;11.63;;;9.30;;
10122;SDS011;5101;49.038;8.710;2023-03-01T02:05:03;16.43;;;10.00;;
10122;SDS011;5101;49.038;8.710;2023-03-01T02:07:44;13.90;;;10.50;;
10122;SDS011;5101;49.038;8.710;2023-03-01T02:10:12;11.83;;;9.07;;
10122;SDS011;5101;49.038;8.710;2023-03-01T02:12:37;13.30;;;10.40;;
10122;SDS011;5101;49.038;8.710;2023-03-01T02:15:04;15.03;;;10.20;;
10122;SDS011;5101;49.038;8.710;2023-03-01T02:17:30;14.10;;;9.63;;
10122;SDS011;5101;49.038;8.710;2023-03-01T02:22:48;15.33;;;9.70;;
10122;SDS011;5101;49.038;8.710;2023-03-01T02:30:32;13.13;;;10.60;;
10122;SDS011;5101;49.038;8.710;2023-03-01T02:32:59;15.60;;;10.13;;
10122;SDS011;5101;49.038;8.710;2023-03-01T02:35:27;12.27;;;9.90;;
10122;SDS011;5101;49.038;8.710;2023-03-01T02:37:56;13.63;;;9.93;;
10122;SDS011;5101;49.038;8.710;2023-03-01T02:40:25;16.07;;;11.10;;
10122;SDS011;5101;49.038;8.710;2023-03-01T02:42:54;15.77;;;10.40;;
10122;SDS011;5101;49.038;8.710;2023-03-01T02:45:22;15.97;;;10.30;;
10122;SDS011;5101;49.038;8.710;2023-03-01T02:47:48;14.23;;;10.70;;
10122;SDS011;5101;49.038;8.710;2023-03-01T02:52:56;15.27;;;10.60;;
10122;SDS011;5101;49.038;8.710;2023-03-01T02:55:41;13.67;;;10.10;;
10122;SDS011;5101;49.038;8.710;2023-03-01T02:58:07;14.00;;;10.23;;
10122;SDS011;5101;49.038;8.710;2023-03-01T03:00:36;13.77;;;10.80;;
10122;SDS011;5101;49.038;8.710;2023-03-01T03:03:05;16.03;;;11.43;;
10122;SDS011;5101;49.038;8.710;2023-03-01T03:05:31;16.27;;;11.50;;
10122;SDS011;5101;49.038;8.710;2023-03-01T03:07:58;13.83;;;10.60;;
10122;SDS011;5101;49.038;8.710;2023-03-01T03:10:32;17.00;;;11.20;;
10122;SDS011;5101;49.038;8.710;2023-03-01T03:13:02;15.70;;;10.87;;
10122;SDS011;5101;49.038;8.710;2023-03-01T03:15:31;16.80;;;11.27;;
10122;SDS011;5101;49.038;8.710;2023-03-01T03:18:00;14.20;;;10.80;;
10122;SDS011;5101;49.038;8.710;2023-03-01T03:20:27;15.27;;;11.20;;
10122;SDS011;5101;49.038;8.710;2023-03-01T03:22:54;16.57;;;11.20;;
10122;SDS011;5101;49.038;8.710;2023-03-01T03:25:21;16.37;;;11.20;;
10122;SDS011;5101;49.038;8.710;2023-03-01T03:27:48;16.90;;;12.00;;
10122;SDS011;5101;49.038;8.710;2023-03-01T03:30:21;16.67;;;11.03;;
10122;SDS011;5101;49.038;8.710;2023-03-01T03:32:48;16.83;;;11.53;;
10122;SDS011;5101;49.038;8.710;2023-03-01T03:35:17;17.47;;;12.37;;
10122;SDS011;5101;49.038;8.710;2023-03-01T03:37:48;16.20;;;11.10;;
10122;SDS011;5101;49.038;8.710;2023-03-01T03:40:50;18.07;;;11.53;;
10122;SDS011;5101;49.038;8.710;2023-03-01T03:43:16;15.57;;;10.80;;
10122;SDS011;5101;49.038;8.710;2023-03-01T03:45:47;15.13;;;11.30;;
10122;SDS011;5101;49.038;8.710;2023-03-01T03:48:14;17.20;;;11.63;;
10122;SDS011;5101;49.038;8.710;2023-03-01T03:50:40;14.93;;;11.40;;
10122;SDS011;5101;49.038;8.710;2023-03-01T03:53:07;18.07;;;11.80;;
10122;SDS011;5101;49.038;8.710;2023-03-01T03:55:34;17.30;;;11.17;;
10122;SDS011;5101;49.038;8.710;2023-03-01T03:58:03;17.50;;;12.23;;
10122;SDS011;5101;49.038;8.710;2023-03-01T04:00:31;17.30;;;11.57;;
10122;SDS011;5101;49.038;8.710;2023-03-01T04:02:58;18.00;;;12.03;;
10122;SDS011;5101;49.038;8.710;2023-03-01T04:05:24;13.73;;;10.90;;
10122;SDS011;5101;49.038;8.710;2023-03-01T04:07:49;16.13;;;11.50;;
10122;SDS011;5101;49.038;8.710;2023-03-01T04:10:25;20.60;;;12.23;;
10122;SDS011;5101;49.038;8.710;2023-03-01T04:12:52;17.23;;;12.00;;
10122;SDS011;5101;49.038;8.710;2023-03-01T04:15:18;16.20;;;11.60;;
10122;SDS011;5101;49.038;8.710;2023-03-01T04:17:44;18.03;;;11.73;;
10122;SDS011;5101;49.038;8.710;2023-03-01T04:20:12;15.27;;;11.47;;
10122;SDS011;5101;49.038;8.710;2023-03-01T04:22:42;15.43;;;12.37;;
10122;SDS011;5101;49.038;8.710;2023-03-01T04:25:08;19.73;;;12.60;;
10122;SDS011;5101;49.038;8.710;2023-03-01T04:27:34;19.67;;;13.87;;
10122;SDS011;5101;49.038;8.710;2023-03-01T04:30:00;16.03;;;12.40;;
10122;SDS011;5101;49.038;8.710;2023-03-01T04:32:27;19.63;;;12.07;;
10122;SDS011;5101;49.038;8.710;2023-03-01T04:34:53;16.20;;;12.37;;
10122;SDS011;5101;49.038;8.710;2023-03-01T04:37:18;15.30;;;12.33;;
10122;SDS011;5101;49.038;8.710;2023-03-01T04:39:44;15.90;;;12.00;;
10122;SDS011;5101;49.038;8.710;2023-03-01T04:42:12;16.73;;;11.90;;
10122;SDS011;5101;49.038;8.710;2023-03-01T04:44:38;15.43;;;11.90;;
10122;SDS011;5101;49.038;8.710;2023-03-01T04:47:04;19.23;;;13.60;;
10122;SDS011;5101;49.038;8.710;2023-03-01T04:49:30;17.83;;;12.90;;
10122;SDS011;5101;49.038;8.710;2023-03-01T04:51:56;18.27;;;12.33;;
10122;SDS011;5101;49.038;8.710;2023-03-01T04:54:24;18.10;;;12.23;;
10122;SDS011;5101;49.038;8.710;2023-03-01T04:56:49;16.47;;;12.43;;
10122;SDS011;5101;49.038;8.710;2023-03-01T04:59:15;18.03;;;12.53;;
10122;SDS011;5101;49.038;8.710;2023-03-01T05:01:40;19.07;;;12.43;;
10122;SDS011;5101;49.038;8.710;2023-03-01T05:04:07;17.87;;;12.57;;
10122;SDS011;5101;49.038;8.710;2023-03-01T05:06:37;21.40;;;11.97;;
10122;SDS011;5101;49.038;8.710;2023-03-01T05:09:02;17.57;;;12.77;;
10122;SDS011;5101;49.038;8.710;2023-03-01T05:11:28;18.03;;;12.73;;
10122;SDS011;5101;49.038;8.710;2023-03-01T05:13:58;17.07;;;11.93;;
10122;SDS011;5101;49.038;8.710;2023-03-01T05:16:24;20.90;;;12.93;;
10122;SDS011;5101;49.038;8.710;2023-03-01T05:18:49;16.07;;;12.40;;
10122;SDS011;5101;49.038;8.710;2023-03-01T05:21:16;18.60;;;14.17;;
10122;SDS011;5101;49.038;8.710;2023-03-01T05:23:42;16.50;;;11.90;;
10122;SDS011;5101;49.038;8.710;2023-03-01T05:26:08;20.27;;;12.83;;
10122;SDS011;5101;49.038;8.710;2023-03-01T05:28:34;17.83;;;12.90;;
10122;SDS011;5101;49.038;8.710;2023-03-01T05:30:59;17.70;;;12.23;;
10122;SDS011;5101;49.038;8.710;2023-03-01T05:33:25;18.77;;;13.43;;
10122;SDS011;5101;49.038;8.710;2023-03-01T05:35:52;21.13;;;13.07;;
10122;SDS011;5101;49.038;8.710;2023-03-01T05:38:18;17.83;;;13.43;;
10122;SDS011;5101;49.038;8.710;2023-03-01T05:40:45;18.57;;;13.20;;
10122;SDS011;5101;49.038;8.710;2023-03-01T05:43:13;20.47;;;13.67;;
10122;SDS011;5101;49.038;8.710;2023-03-01T05:45:40;19.00;;;13.73;;
10122;SDS011;5101;49.038;8.710;2023-03-01T05:48:06;19.43;;;12.93;;
10122;SDS011;5101;49.038;8.710;2023-03-01T05:50:34;18.97;;;13.53;;
10122;SDS011;5101;49.038;8.710;2023-03-01T05:53:02;18.87;;;13.77;;
10122;SDS011;5101;49.038;8.710;2023-03-01T05:55:33;20.10;;;13.67;;
10122;SDS011;5101;49.038;8.710;2023-03-01T05:58:03;21.37;;;14.43;;
10122;SDS011;5101;49.038;8.710;2023-03-01T06:00:31;20.13;;;14.00;;
10122;SDS011;5101;49.038;8.710;2023-03-01T06:02:57;18.87;;;13.80;;
10122;SDS011;5101;49.038;8.710;2023-03-01T06:05:24;16.77;;;12.73;;
10122;SDS011;5101;49.038;8.710;2023-03-01T06:07:50;18.17;;;13.43;;
10122;SDS011;5101;49.038;8.710;2023-03-01T06:10:16;20.30;;;14.17;;
10122;SDS011;5101;49.038;8.710;2023-03-01T06:12:43;21.33;;;14.67;;
10122;SDS011;5101;49.038;8.710;2023-03-01T06:15:09;19.47;;;14.47;;
10122;SDS011;5101;49.038;8.710;2023-03-01T06:17:37;21.83;;;15.03;;
10122;SDS011;5101;49.038;8.710;2023-03-01T06:20:06;19.93;;;14.90;;
10122;SDS011;5101;49.038;8.710;2023-03-01T06:22:34;23.53;;;13.97;;
10122;SDS011;5101;49.038;8.710;2023-03-01T06:24:59;23.90;;;14.77;;
10122;SDS011;5101;49.038;8.710;2023-03-01T06:27:25;19.77;;;14.23;;
10122;SDS011;5101;49.038;8.710;2023-03-01T06:29:50;20.83;;;14.80;;
10122;SDS011;5101;49.038;8.710;2023-03-01T06:32:16;21.20;;;14.33;;
10122;SDS011;5101;49.038;8.710;2023-03-01T06:34:41;22.60;;;14.00;;
10122;SDS011;5101;49.038;8.710;2023-03-01T06:37:07;21.67;;;14.57;;
10122;SDS011;5101;49.038;8.710;2023-03-01T06:39:33;19.17;;;14.07;;
10122;SDS011;5101;49.038;8.710;2023-03-01T06:41:58;18.83;;;13.70;;
10122;SDS011;5101;49.038;8.710;2023-03-01T06:44:24;20.03;;;13.27;;
10122;SDS011;5101;49.038;8.710;2023-03-01T06:46:50;20.43;;;14.37;;
10122;SDS011;5101;49.038;8.710;2023-03-01T06:49:16;20.27;;;14.00;;
10122;SDS011;5101;49.038;8.710;2023-03-01T06:51:42;20.53;;;14.53;;
10122;SDS011;5101;49.038;8.710;2023-03-01T06:54:09;20.37;;;13.83;;
10122;SDS011;5101;49.038;8.710;2023-03-01T06:56:35;19.83;;;14.43;;
10122;SDS011;5101;49.038;8.710;2023-03-01T06:59:00;21.80;;;14.33;;
10122;SDS011;5101;49.038;8.710;2023-03-01T07:01:27;20.50;;;13.83;;
10122;SDS011;5101;49.038;8.710;2023-03-01T07:03:53;18.33;;;12.73;;
10122;SDS011;5101;49.038;8.710;2023-03-01T07:06:19;19.33;;;13.40;;
10122;SDS011;5101;49.038;8.710;2023-03-01T07:08:45;21.00;;;13.80;;
10122;SDS011;5101;49.038;8.710;2023-03-01T07:11:10;19.57;;;13.37;;
10122;SDS011;5101;49.038;8.710;2023-03-01T07:13:36;19.67;;;13.80;;
10122;SDS011;5101;49.038;8.710;2023-03-01T07:16:01;19.60;;;13.27;;
10122;SDS011;5101;49.038;8.710;2023-03-01T07:18:27;19.40;;;13.30;;
10122;SDS011;5101;49.038;8.710;2023-03-01T07:20:52;19.10;;;13.90;;
10122;SDS011;5101;49.038;8.710;2023-03-01T07:23:18;18.80;;;13.43;;
10122;SDS011;5101;49.038;8.710;2023-03-01T07:25:43;18.53;;;13.97;;
10122;SDS011;5101;49.038;8.710;2023-03-01T07:28:09;20.13;;;13.87;;
10122;SDS011;5101;49.038;8.710;2023-03-01T07:30:34;18.40;;;12.97;;
10122;SDS011;5101;49.038;8.710;2023-03-01T07:33:00;16.50;;;10.83;;
10122;SDS011;5101;49.038;8.710;2023-03-01T07:35:26;18.80;;;13.67;;
10122;SDS011;5101;49.038;8.710;2023-03-01T07:37:52;17.57;;;11.90;;
10122;SDS011;5101;49.038;8.710;2023-03-01T07:40:18;19.83;;;14.57;;
10122;SDS011;5101;49.038;8.710;2023-03-01T07:42:44;17.87;;;13.87;;
10122;SDS011;5101;49.038;8.710;2023-03-01T07:45:10;19.67;;;13.20;;
10122;SDS011;5101;49.038;8.710;2023-03-01T07:47:36;18.40;;;12.97;;
10122;SDS011;5101;49.038;8.710;2023-03-01T07:50:02;18.33;;;12.70;;
10122;SDS011;5101;49.038;8.710;2023-03-01T07:52:28;19.83;;;13.23;;
10122;SDS011;5101;49.038;8.710;2023-03-01T07:54:54;16.30;;;12.13;;
10122;SDS011;5101;49.038;8.710;2023-03-01T07:57:20;16.13;;;12.80;;
10122;SDS011;5101;49.038;8.710;2023-03-01T07:59:45;16.00;;;11.97;;
10122;SDS011;5101;49.038;8.710;2023-03-01T08:02:11;19.90;;;13.40;;
10122;SDS011;5101;49.038;8.710;2023-03-01T08:04:36;18.03;;;13.30;;
10122;SDS011;5101;49.038;8.710;2023-03-01T08:07:04;17.23;;;13.60;;
10122;SDS011;5101;49.038;8.710;2023-03-01T08:09:30;15.33;;;12.60;;
10122;SDS011;5101;49.038;8.710;2023-03-01T08:11:56;18.20;;;14.00;;
10122;SDS011;5101;49.038;8.710;2023-03-01T08:14:24;16.03;;;12.83;;
10122;SDS011;5101;49.038;8.710;2023-03-01T08:16:50;16.37;;;13.50;;
10122;SDS011;5101;49.038;8.710;2023-03-01T08:19:15;15.20;;;12.97;;
10122;SDS011;5101;49.038;8.710;2023-03-01T08:21:41;17.10;;;12.43;;
10122;SDS011;5101;49.038;8.710;2023-03-01T08:24:07;17.53;;;13.53;;
10122;SDS011;5101;49.038;8.710;2023-03-01T08:26:35;20.33;;;13.30;;
10122;SDS011;5101;49.038;8.710;2023-03-01T08:29:01;16.13;;;12.80;;
10122;SDS011;5101;49.038;8.710;2023-03-01T08:31:32;16.67;;;12.93;;
10122;SDS011;5101;49.038;8.710;2023-03-01T08:34:04;17.60;;;13.53;;
10122;SDS011;5101;49.038;8.710;2023-03-01T08:36:32;16.20;;;12.53;;
10122;SDS011;5101;49.038;8.710;2023-03-01T08:39:03;16.23;;;13.53;;
10122;SDS011;5101;49.038;8.710;2023-03-01T08:41:29;17.53;;;13.00;;
10122;SDS011;5101;49.038;8.710;2023-03-01T08:43:55;16.27;;;13.13;;
10122;SDS011;5101;49.038;8.710;2023-03-01T08:46:44;15.57;;;12.57;;
10122;SDS011;5101;49.038;8.710;2023-03-01T08:49:12;18.53;;;12.53;;
10122;SDS011;5101;49.038;8.710;2023-03-01T08:51:40;16.23;;;13.03;;
10122;SDS011;5101;49.038;8.710;2023-03-01T08:54:06;15.95;;;13.25;;
10122;SDS011;5101;49.038;8.710;2023-03-01T08:56:35;15.23;;;12.68;;
10122;SDS011;5101;49.038;8.710;2023-03-01T08:59:01;15.13;;;13.05;;
10122;SDS011;5101;49.038;8.710;2023-03-01T09:01:26;15.43;;;13.30;;
10122;SDS011;5101;49.038;8.710;2023-03-01T09:03:52;17.25;;;13.73;;
10122;SDS011;5101;49.038;8.710;2023-03-01T09:06:18;16.70;;;13.18;;
10122;SDS011;5101;49.038;8.710;2023-03-01T09:08:44;16.02;;;13.52;;
10122;SDS011;5101;49.038;8.710;2023-03-01T09:11:12;15.35;;;12.30;;
10122;SDS011;5101;49.038;8.710;2023-03-01T09:13:40;16.13;;;13.07;;
10122;SDS011;5101;49.038;8.710;2023-03-01T09:16:07;15.60;;;13.80;;
10122;SDS011;5101;49.038;8.710;2023-03-01T09:18:33;15.90;;;13.10;;
10122;SDS011;5101;49.038;8.710;2023-03-01T09:21:09;16.30;;;14.07;;
10122;SDS011;5101;49.038;8.710;2023-03-01T09:23:40;18.83;;;13.90;;
10122;SDS011;5101;49.038;8.710;2023-03-01T09:26:07;16.45;;;13.85;;
10122;SDS011;5101;49.038;8.710;2023-03-01T09:28:35;16.38;;;13.70;;
10122;SDS011;5101;49.038;8.710;2023-03-01T09:31:01;15.23;;;13.10;;
10122;SDS011;5101;49.038;8.710;2023-03-01T09:33:28;17.17;;;13.68;;
10122;SDS011;5101;49.038;8.710;2023-03-01T09:35:58;16.88;;;12.57;;
10122;SDS011;5101;49.038;8.710;2023-03-01T09:38:25;14.48;;;12.90;;
10122;SDS011;5101;49.038;8.710;2023-03-01T09:40:50;15.52;;;13.63;;
10122;SDS011;5101;49.038;8.710;2023-03-01T09:45:44;16.38;;;13.35;;
10122;SDS011;5101;49.038;8.710;2023-03-01T09:48:19;14.75;;;13.18;;
10122;SDS011;5101;49.038;8.710;2023-03-01T09:50:49;16.60;;;13.13;;
10122;SDS011;5101;49.038;8.710;2023-03-01T09:53:16;15.48;;;13.65;;
10122;SDS011;5101;49.038;8.710;2023-03-01T09:56:00;16.25;;;12.80;;
10122;SDS011;5101;49.038;8.710;2023-03-01T10:07:05;16.23;;;14.25;;
10122;SDS011;5101;49.038;8.710;2023-03-01T10:09:34;18.13;;;12.60;;
10122;SDS011;5101;49.038;8.710;2023-03-01T10:12:02;17.80;;;14.25;;
10122;SDS011;5101;49.038;8.710;2023-03-01T10:14:35;18.75;;;14.13;;
10122;SDS011;5101;49.038;8.710;2023-03-01T10:17:08;15.70;;;14.00;;
10122;SDS011;5101;49.038;8.710;2023-03-01T10:19:45;16.40;;;12.88;;
10122;SDS011;5101;49.038;8.710;2023-03-01T10:22:21;16.27;;;14.23;;
10122;SDS011;5101;49.038;8.710;2023-03-01T10:24:53;15.20;;;13.60;;
10122;SDS011;5101;49.038;8.710;2023-03-01T10:27:23;15.68;;;12.93;;
10122;SDS011;5101;49.038;8.710;2023-03-01T10:30:02;15.77;;;13.45;;
10122;SDS011;5101;49.038;8.710;2023-03-01T10:32:41;15.13;;;13.38;;
10122;SDS011;5101;49.038;8.710;2023-03-01T10:38:04;16.30;;;13.55;;
10122;SDS011;5101;49.038;8.710;2023-03-01T10:40:34;17.67;;;13.68;;
10122;SDS011;5101;49.038;8.710;2023-03-01T10:43:04;16.02;;;13.95;;
10122;SDS011;5101;49.038;8.710;2023-03-01T10:45:38;16.17;;;13.50;;
10122;SDS011;5101;49.038;8.710;2023-03-01T10:48:05;15.85;;;13.57;;
10122;SDS011;5101;49.038;8.710;2023-03-01T10:50:37;15.90;;;13.90;;
10122;SDS011;5101;49.038;8.710;2023-03-01T10:53:04;18.20;;;13.60;;
10122;SDS011;5101;49.038;8.710;2023-03-01T10:55:41;14.90;;;12.88;;
10122;SDS011;5101;49.038;8.710;2023-03-01T10:58:08;14.50;;;12.80;;
10122;SDS011;5101;49.038;8.710;2023-03-01T11:00:46;17.90;;;13.30;;
10122;SDS011;5101;49.038;8.710;2023-03-01T11:03:12;16.67;;;14.00;;
10122;SDS011;5101;49.038;8.710;2023-03-01T11:05:56;15.70;;;13.95;;
10122;SDS011;5101;49.038;8.710;2023-03-01T11:13:48;15.60;;;13.27;;
10122;SDS011;5101;49.038;8.710;2023-03-01T11:16:14;16.05;;;13.70;;
10122;SDS011;5101;49.038;8.710;2023-03-01T11:18:47;19.00;;;13.85;;
10122;SDS011;5101;49.038;8.710;2023-03-01T11:24:29;15.07;;;13.18;;
10122;SDS011;5101;49.038;8.710;2023-03-01T11:26:59;15.77;;;13.45;;
10122;SDS011;5101;49.038;8.710;2023-03-01T11:29:38;14.18;;;12.73;;
10122;SDS011;5101;49.038;8.710;2023-03-01T11:32:09;14.63;;;12.80;;
10122;SDS011;5101;49.038;8.710;2023-03-01T11:34:54;14.38;;;12.85;;
10122;SDS011;5101;49.038;8.710;2023-03-01T11:40:21;17.92;;;14.68;;
10122;SDS011;5101;49.038;8.710;2023-03-01T11:42:54;16.63;;;14.18;;
10122;SDS011;5101;49.038;8.710;2023-03-01T11:45:43;15.77;;;13.63;;
10122;SDS011;5101;49.038;8.710;2023-03-01T11:50:59;17.17;;;13.90;;
10122;SDS011;5101;49.038;8.710;2023-03-01T11:56:34;16.35;;;14.05;;
10122;SDS011;5101;49.038;8.710;2023-03-01T11:59:24;17.58;;;14.40;;
10122;SDS011;5101;49.038;8.710;2023-03-01T12:07:26;19.38;;;14.15;;
10122;SDS011;5101;49.038;8.710;2023-03-01T12:10:22;17.55;;;13.93;;
10122;SDS011;5101;49.038;8.710;2023-03-01T12:16:15;16.48;;;13.95;;
10122;SDS011;5101;49.038;8.710;2023-03-01T12:24:14;18.27;;;13.98;;
10122;SDS011;5101;49.038;8.710;2023-03-01T12:27:09;17.05;;;13.45;;
10122;SDS011;5101;49.038;8.710;2023-03-01T12:29:53;17.17;;;14.48;;
10122;SDS011;5101;49.038;8.710;2023-03-01T12:35:16;16.38;;;13.25;;
10122;SDS011;5101;49.038;8.710;2023-03-01T12:43:43;17.30;;;14.00;;
10122;SDS011;5101;49.038;8.710;2023-03-01T12:46:36;18.55;;;14.95;;
10122;SDS011;5101;49.038;8.710;2023-03-01T12:49:14;17.90;;;13.95;;
10122;SDS011;5101;49.038;8.710;2023-03-01T12:51:45;18.00;;;14.52;;
10122;SDS011;5101;49.038;8.710;2023-03-01T12:54:27;15.82;;;14.13;;
10122;SDS011;5101;49.038;8.710;2023-03-01T12:57:00;18.63;;;14.10;;
10122;SDS011;5101;49.038;8.710;2023-03-01T13:00:23;15.75;;;14.10;;
10122;SDS011;5101;49.038;8.710;2023-03-01T13:02:36;17.20;;;14.45;;
10122;SDS011;5101;49.038;8.710;2023-03-01T13:05:24;15.02;;;12.88;;
10122;SDS011;5101;49.038;8.710;2023-03-01T13:13:30;18.85;;;13.70;;
10122;SDS011;5101;49.038;8.710;2023-03-01T13:15:56;17.45;;;14.35;;
10122;SDS011;5101;49.038;8.710;2023-03-01T13:20:49;17.65;;;13.60;;
10122;SDS011;5101;49.038;8.710;2023-03-01T13:30:59;16.05;;;13.90;;
10122;SDS011;5101;49.038;8.710;2023-03-01T13:35:51;17.02;;;13.07;;
10122;SDS011;5101;49.038;8.710;2023-03-01T13:41:11;15.73;;;13.18;;
10122;SDS011;5101;49.038;8.710;2023-03-01T13:43:38;19.27;;;13.38;;
10122;SDS011;5101;49.038;8.710;2023-03-01T13:46:17;17.40;;;12.95;;
10122;SDS011;5101;49.038;8.710;2023-03-01T13:48:47;15.05;;;13.45;;
10122;SDS011;5101;49.038;8.710;2023-03-01T13:51:19;16.50;;;13.68;;
10122;SDS011;5101;49.038;8.710;2023-03-01T13:53:48;16.15;;;13.63;;
10122;SDS011;5101;49.038;8.710;2023-03-01T13:56:17;17.35;;;14.05;;
10122;SDS011;5101;49.038;8.710;2023-03-01T14:01:22;16.55;;;12.63;;
10122;SDS011;5101;49.038;8.710;2023-03-01T14:03:49;18.55;;;13.20;;
10122;SDS011;5101;49.038;8.710;2023-03-01T14:06:16;19.10;;;13.40;;
10122;SDS011;5101;49.038;8.710;2023-03-01T14:08:45;15.75;;;13.27;;
10122;SDS011;5101;49.038;8.710;2023-03-01T14:14:18;17.08;;;13.65;;
10122;SDS011;5101;49.038;8.710;2023-03-01T14:16:50;17.52;;;14.30;;
10122;SDS011;5101;49.038;8.710;2023-03-01T14:19:21;16.48;;;13.68;;
10122;SDS011;5101;49.038;8.710;2023-03-01T14:22:12;17.27;;;13.82;;
10122;SDS011;5101;49.038;8.710;2023-03-01T14:24:47;17.42;;;13.07;;
10122;SDS011;5101;49.038;8.710;2023-03-01T14:27:15;16.58;;;12.68;;
10122;SDS011;5101;49.038;8.710;2023-03-01T14:29:42;15.55;;;11.77;;
10122;SDS011;5101;49.038;8.710;2023-03-01T14:32:15;14.63;;;12.68;;
10122;SDS011;5101;49.038;8.710;2023-03-01T14:34:45;14.35;;;11.48;;
10122;SDS011;5101;49.038;8.710;2023-03-01T14:37:18;15.43;;;13.30;;
10122;SDS011;5101;49.038;8.710;2023-03-01T14:39:50;15.35;;;12.00;;
10122;SDS011;5101;49.038;8.710;2023-03-01T14:42:17;15.20;;;12.75;;
10122;SDS011;5101;49.038;8.710;2023-03-01T14:44:45;15.88;;;12.13;;
10122;SDS011;5101;49.038;8.710;2023-03-01T14:47:16;14.80;;;13.10;;
10122;SDS011;5101;49.038;8.710;2023-03-01T14:49:53;15.63;;;12.98;;
10122;SDS011;5101;49.038;8.710;2023-03-01T14:52:25;14.40;;;11.32;;
10122;SDS011;5101;49.038;8.710;2023-03-01T14:54:59;17.83;;;13.88;;
10122;SDS011;5101;49.038;8.710;2023-03-01T14:57:27;15.43;;;13.10;;
10122;SDS011;5101;49.038;8.710;2023-03-01T14:59:53;14.88;;;13.13;;
10122;SDS011;5101;49.038;8.710;2023-03-01T15:02:23;14.98;;;11.82;;
10122;SDS011;5101;49.038;8.710;2023-03-01T15:04:57;15.10;;;12.37;;
10122;SDS011;5101;49.038;8.710;2023-03-01T15:07:34;12.73;;;11.35;;
10122;SDS011;5101;49.038;8.710;2023-03-01T15:10:04;16.13;;;11.68;;
10122;SDS011;5101;49.038;8.710;2023-03-01T15:12:34;14.45;;;11.85;;
10122;SDS011;5101;49.038;8.710;2023-03-01T15:15:01;14.90;;;12.75;;
10122;SDS011;5101;49.038;8.710;2023-03-01T15:17:43;17.58;;;13.07;;
10122;SDS011;5101;49.038;8.710;2023-03-01T15:20:15;15.63;;;10.85;;
10122;SDS011;5101;49.038;8.710;2023-03-01T15:22:43;15.43;;;13.10;;
10122;SDS011;5101;49.038;8.710;2023-03-01T15:25:17;13.82;;;12.10;;
10122;SDS011;5101;49.038;8.710;2023-03-01T15:27:47;15.13;;;12.70;;
10122;SDS011;5101;49.038;8.710;2023-03-01T15:30:20;14.02;;;10.73;;
10122;SDS011;5101;49.038;8.710;2023-03-01T15:35:51;15.82;;;13.55;;
10122;SDS011;5101;49.038;8.710;2023-03-01T15:41:29;16.88;;;12.82;;
10122;SDS011;5101;49.038;8.710;2023-03-01T15:44:00;15.40;;;12.43;;
10122;SDS011;5101;49.038;8.710;2023-03-01T15:46:39;13.70;;;12.13;;
10122;SDS011;5101;49.038;8.710;2023-03-01T15:49:23;16.17;;;13.20;;
10122;SDS011;5101;49.038;8.710;2023-03-01T15:52:06;17.40;;;12.52;;
10122;SDS011;5101;49.038;8.710;2023-03-01T15:54:38;17.00;;;13.10;;
10122;SDS011;5101;49.038;8.710;2023-03-01T15:57:07;15.35;;;12.63;;
10122;SDS011;5101;49.038;8.710;2023-03-01T15:59:38;18.20;;;11.52;;
10122;SDS011;5101;49.038;8.710;2023-03-01T16:02:08;16.50;;;12.53;;
10122;SDS011;5101;49.038;8.710;2023-03-01T16:04:39;16.20;;;11.88;;
10122;SDS011;5101;49.038;8.710;2023-03-01T16:07:05;15.95;;;12.57;;
10122;SDS011;5101;49.038;8.710;2023-03-01T16:09:31;16.33;;;12.70;;
10122;SDS011;5101;49.038;8.710;2023-03-01T16:11:57;15.47;;;12.43;;
10122;SDS011;5101;49.038;8.710;2023-03-01T16:14:23;15.40;;;12.80;;
10122;SDS011;5101;49.038;8.710;2023-03-01T16:16:48;16.08;;;12.73;;
10122;SDS011;5101;49.038;8.710;2023-03-01T16:19:14;15.27;;;12.38;;
10122;SDS011;5101;49.038;8.710;2023-03-01T16:21:41;15.70;;;12.90;;
10122;SDS011;5101;49.038;8.710;2023-03-01T16:24:07;15.95;;;14.05;;
10122;SDS011;5101;49.038;8.710;2023-03-01T16:26:33;17.00;;;13.07;;
10122;SDS011;5101;49.038;8.710;2023-03-01T16:28:59;20.80;;;13.18;;